Thunder radar more information blitzortung!


Radar de pluja more information rain snow radar


Visita la nostra xarxa de llocs de meteo:

Template documentation
and downloads

And another site



No particular awareness of the weather is required.    There are no Weather-warnings

Pagina Historial Weather Underground text

Diari Resum Novembre 22, 2017 Unitats:  Imperial    Mètric   Tant
« Previous Dia
SegĂźent Dia »
Diari Setmana Mensual Anual Personalitzada
  Maxima: Minima: Media:
Temperatura: TemperatureC °F 4.0 °F 11.6 °F
Punt de rosada: DewpointC °F -2.1 °F 6.2 °F
Humitat: Humidity % 55 % 69 %
Wind Speed: WindSpeedKMH mph 0.0 mph 3.5 mph
RĂ fegues de vent: WindSpeedGustKMH mph - -
Vent:- - SW
Pression baro: PressurehPa in 1014.8 in -
Precipitacions: 0.0 in    
Historical Graphs
 
 
Dades de taula per Novembre 22, 2017
Temps Temperatura Punt de rosada Pression baro Vent Wind Speed RĂ fegues de vent Humitat Rainfall Rate (Hourly)
TemperatureC °F DewpointC °F PressurehPa in Calm     Humidity % HourlyPrecipMM in
00:01 8.0 °F -0.5 °F 1018.8 in Calm     55 % 0.0 in
00:10 4.7 °F -1.8 °F 1017.8 in Calm     63 % 0.0 in
00:30 4.4 °F -2.1 °F 1017.8 in Calm     63 % 0.0 in
00:40 4.3 °F -1.9 °F 1017.8 in Calm     64 % 0.0 in
01:00 4.2 °F -2.0 °F 1017.8 in Calm     64 % 0.0 in
01:10 4.2 °F -1.8 °F 1017.8 in Calm     65 % 0.0 in
01:20 4.3 °F -1.7 °F 1017.8 in Calm     65 % 0.0 in
01:30 4.3 °F -1.7 °F 1017.8 in WSW 1.6 mph 1.6 mph 65 % 0.0 in
01:50 4.1 °F -1.9 °F 1016.8 in Calm   3.2 mph 65 % 0.0 in
02:10 4.0 °F -1.8 °F 1017.8 in Calm     66 % 0.0 in
02:30 4.0 °F -1.8 °F 1016.8 in Calm     66 % 0.0 in
02:40 4.2 °F -1.4 °F 1017.8 in Calm   1.6 mph 67 % 0.0 in
02:50 4.4 °F -1.2 °F 1017.8 in Calm     67 % 0.0 in
03:00 4.3 °F -1.5 °F 1018.8 in Calm   1.6 mph 66 % 0.0 in
03:10 4.3 °F -1.5 °F 1017.8 in Calm     66 % 0.0 in
03:20 4.7 °F -0.9 °F 1017.8 in Calm   1.6 mph 67 % 0.0 in
03:30 4.8 °F -1.0 °F 1017.8 in SW 1.6 mph 3.2 mph 66 % 0.0 in
03:50 5.7 °F -0.2 °F 1017.8 in NE 1.6 mph 4.8 mph 66 % 0.0 in
04:00 6.5 °F 0.4 °F 1017.8 in NE 3.2 mph 4.8 mph 65 % 0.0 in
04:20 7.0 °F 0.9 °F 1017.8 in Calm   1.6 mph 65 % 0.0 in
04:30 7.3 °F 1.2 °F 1017.8 in Calm   3.2 mph 65 % 0.0 in
04:50 7.5 °F 0.9 °F 1017.8 in SSW 1.6 mph 4.8 mph 63 % 0.0 in
10:55 7.9 °F 1.3 °F 1017.8 in WSW 3.7 mph 3.7 mph 63 % 0.0 in
11:05 8.3 °F 1.7 °F 1018.8 in SW 3.7 mph 3.7 mph 63 % 0.0 in
11:10 8.8 °F 2.1 °F 1018.8 in ESE 1.9 mph   63 % 0.0 in
11:15 9.4 °F 2.7 °F 1018.8 in Calm     63 % 0.0 in
11:20 10.2 °F 3.4 °F 1017.8 in South 1.9 mph 1.9 mph 63 % 0.0 in
11:25 10.8 °F 3.8 °F 1017.8 in SSW 1.9 mph   62 % 0.0 in
11:30 11.4 °F 4.4 °F 1017.8 in SSW 1.9 mph 1.9 mph 62 % 0.0 in
11:40 12.4 °F 5.1 °F 1017.8 in SE 3.7 mph 3.7 mph 61 % 0.0 in
11:45 12.8 °F 5.4 °F 1017.8 in ESE 3.2 mph 3.2 mph 61 % 0.0 in
11:50 12.7 °F 5.1 °F 1017.8 in NNE 3.7 mph 3.7 mph 60 % 0.0 in
11:55 12.9 °F 5.6 °F 1017.8 in NE 3.7 mph 3.7 mph 61 % 0.0 in
12:05 13.5 °F 6.1 °F 1017.8 in ESE 3.7 mph 3.7 mph 61 % 0.0 in
12:10 13.8 °F 6.4 °F 1017.8 in ESE 3.7 mph 3.7 mph 61 % 0.0 in
12:15 14.3 °F 6.9 °F 1017.8 in SW 3.9 mph 3.9 mph 61 % 0.0 in
12:20 14.8 °F 7.6 °F 1017.8 in SW 1.9 mph 1.9 mph 62 % 0.0 in
12:25 15.3 °F 8.3 °F 1017.8 in SW 4.7 mph 4.7 mph 63 % 0.0 in
12:26 15.2 °F 8.2 °F 1017.8 in SW 7.4 mph 7.4 mph 63 % 0.0 in
12:31 15.2 °F 8.2 °F 1017.8 in WSW 4.2 mph 4.2 mph 63 % 0.0 in
12:36 15.6 °F 8.6 °F 1017.8 in SSW 5.6 mph 5.6 mph 63 % 0.0 in
12:41 15.9 °F 8.8 °F 1017.8 in WSW 3.7 mph 3.7 mph 63 % 0.0 in
12:56 16.8 °F 9.7 °F 1016.8 in SW 5.6 mph 5.6 mph 63 % 0.0 in
13:01 17.0 °F 9.7 °F 1016.8 in West 7.4 mph 7.4 mph 62 % 0.0 in
13:11 17.1 °F 9.5 °F 1016.8 in South 3.7 mph 3.7 mph 61 % 0.0 in
13:16 17.4 °F 9.8 °F 1016.8 in SSW 5.6 mph 5.6 mph 61 % 0.0 in
13:21 17.4 °F 9.8 °F 1015.8 in SSW 5.6 mph 5.6 mph 61 % 0.0 in
13:31 17.0 °F 9.4 °F 1015.8 in WSW 5.8 mph 5.8 mph 61 % 0.0 in
13:36 17.3 °F 9.7 °F 1015.8 in SW 5.6 mph 5.6 mph 61 % 0.0 in
13:41 17.3 °F 9.4 °F 1015.8 in South 9.3 mph 9.3 mph 60 % 0.0 in
13:46 17.5 °F 9.7 °F 1015.8 in South 7.4 mph 7.4 mph 60 % 0.0 in
13:56 17.6 °F 9.7 °F 1015.8 in South 7.4 mph 7.4 mph 60 % 0.0 in
14:06 17.8 °F 9.9 °F 1016.8 in South 7.4 mph 7.4 mph 60 % 0.0 in
14:11 17.9 °F 10.0 °F 1016.8 in SSW 5.6 mph 5.6 mph 60 % 0.0 in
14:16 17.9 °F 10.0 °F 1016.8 in South 9.0 mph 9.0 mph 60 % 0.0 in
14:21 17.7 °F 9.6 °F 1014.8 in West 9.3 mph 9.3 mph 59 % 0.0 in
14:31 18.2 °F 10.3 °F 1014.8 in WSW 7.4 mph 7.4 mph 60 % 0.0 in
14:41 18.0 °F 9.9 °F 1015.8 in SW 9.3 mph 9.3 mph 59 % 0.0 in
14:51 18.0 °F 10.1 °F 1015.8 in SW 4.2 mph 4.2 mph 60 % 0.0 in
14:56 18.3 °F 10.2 °F 1015.8 in SSW 5.6 mph 5.6 mph 59 % 0.0 in
15:06 18.2 °F 10.1 °F 1014.8 in SW 8.7 mph 8.7 mph 59 % 0.0 in
15:16 18.0 °F 9.9 °F 1014.8 in WSW 9.3 mph 9.3 mph 59 % 0.0 in
15:21 18.1 °F 9.9 °F 1015.8 in West 9.3 mph 9.3 mph 59 % 0.0 in
15:26 18.1 °F 9.9 °F 1015.8 in SW 9.3 mph 9.3 mph 59 % 0.0 in
15:31 18.1 °F 9.9 °F 1015.8 in SSW 13.0 mph 13.0 mph 59 % 0.0 in
15:36 18.1 °F 9.9 °F 1015.8 in South 9.0 mph 9.0 mph 59 % 0.0 in
15:41 18.1 °F 9.9 °F 1015.8 in WSW 3.7 mph 3.7 mph 59 % 0.0 in
15:46 18.4 °F 10.2 °F 1015.8 in SW 3.7 mph 3.7 mph 59 % 0.0 in
15:51 18.5 °F 10.3 °F 1015.8 in SSW 3.7 mph 3.7 mph 59 % 0.0 in
16:06 17.8 °F 9.7 °F 1015.8 in SSW 11.9 mph 11.9 mph 59 % 0.0 in
16:11 17.6 °F 9.5 °F 1015.8 in WSW 5.6 mph 5.6 mph 59 % 0.0 in
16:16 17.7 °F 9.6 °F 1015.8 in SW 5.8 mph 5.8 mph 59 % 0.0 in
16:21 17.7 °F 9.8 °F 1015.8 in WSW 9.3 mph 9.3 mph 60 % 0.0 in
16:22 17.7 °F 9.8 °F 1015.8 in SSW 9.3 mph 9.3 mph 60 % 0.0 in
16:32 17.3 °F 9.4 °F 1015.8 in WSW 3.7 mph 3.7 mph 60 % 0.0 in
16:37 17.2 °F 9.4 °F 1015.8 in SSW 5.6 mph 5.6 mph 60 % 0.0 in
16:42 17.1 °F 9.3 °F 1015.8 in SW 9.3 mph 9.3 mph 60 % 0.0 in
16:52 16.7 °F 9.1 °F 1015.8 in SW 3.7 mph 3.7 mph 61 % 0.0 in
17:07 16.2 °F 8.9 °F 1015.8 in SW 3.7 mph   62 % 0.0 in
17:12 16.0 °F 8.9 °F 1015.8 in SW 5.3 mph 5.3 mph 63 % 0.0 in
17:17 15.7 °F 8.7 °F 1015.8 in WSW 3.7 mph 3.7 mph 63 % 0.0 in
17:22 15.5 °F 8.5 °F 1015.8 in SW 5.6 mph 5.6 mph 63 % 0.0 in
17:27 15.3 °F 8.5 °F 1015.8 in WSW 3.7 mph 3.7 mph 64 % 0.0 in
17:37 14.8 °F 8.3 °F 1015.8 in WSW 3.7 mph 3.7 mph 65 % 0.0 in
17:42 14.7 °F 8.2 °F 1015.8 in WNW 2.3 mph 2.6 mph 65 % 0.0 in
17:52 14.4 °F 8.1 °F 1015.8 in WSW 3.7 mph 3.7 mph 66 % 0.0 in
17:57 14.3 °F 8.1 °F 1015.8 in West 3.7 mph 3.7 mph 66 % 0.0 in
18:02 14.2 °F 8.2 °F 1016.8 in WSW 3.7 mph 3.7 mph 67 % 0.0 in
18:07 14.0 °F 7.9 °F 1016.8 in West 3.7 mph 3.7 mph 67 % 0.0 in
18:12 14.0 °F 8.2 °F 1016.8 in SW 5.6 mph 5.6 mph 68 % 0.0 in
18:17 14.0 °F 8.4 °F 1016.8 in WSW 5.6 mph 5.6 mph 69 % 0.0 in
18:22 13.9 °F 8.3 °F 1016.8 in WSW 5.6 mph 5.6 mph 69 % 0.0 in
18:27 13.8 °F 8.4 °F 1016.8 in WNW 3.7 mph 3.7 mph 70 % 0.0 in
18:32 13.7 °F 8.3 °F 1015.8 in WNW 5.6 mph 5.6 mph 70 % 0.0 in
18:37 13.5 °F 8.3 °F 1015.8 in South 6.9 mph 6.9 mph 71 % 0.0 in
18:47 13.3 °F 8.3 °F 1016.8 in WSW 2.3 mph 3.2 mph 72 % 0.0 in
18:52 13.1 °F 8.4 °F 1016.8 in SW 4.2 mph 4.2 mph 73 % 0.0 in
18:57 13.0 °F 8.3 °F 1016.8 in WSW 3.7 mph 3.7 mph 73 % 0.0 in
19:07 12.9 °F 8.2 °F 1016.8 in WSW 4.2 mph 4.2 mph 73 % 0.0 in
19:17 12.8 °F 8.3 °F 1016.8 in SW 7.4 mph 7.4 mph 74 % 0.0 in
19:32 12.5 °F 8.4 °F 1016.8 in SW 3.7 mph 3.7 mph 76 % 0.0 in
19:38 12.4 °F 8.3 °F 1016.8 in West 3.9 mph 3.9 mph 76 % 0.0 in
19:43 12.3 °F 8.2 °F 1016.8 in West 3.7 mph 3.7 mph 76 % 0.0 in
19:45 6.8 °F 4.1 °F 1016.8 in Calm     83 % 0.0 in
19:48 12.2 °F 8.1 °F 1016.8 in WSW 5.6 mph 5.6 mph 76 % 0.0 in
19:53 12.1 °F 8.0 °F 1016.8 in SW 3.7 mph 3.7 mph 76 % 0.0 in
19:55 6.8 °F 4.3 °F 1017.8 in SW 1.6 mph 3.2 mph 84 % 0.0 in
19:58 12.0 °F 7.9 °F 1016.8 in WSW 4.7 mph 4.7 mph 76 % 0.0 in
20:03 11.9 °F 7.8 °F 1016.8 in WSW 4.2 mph 4.2 mph 76 % 0.0 in
20:05 6.8 °F 4.3 °F 1017.8 in Calm     84 % 0.0 in
20:13 11.8 °F 7.9 °F 1016.8 in WSW 5.6 mph 5.6 mph 77 % 0.0 in
20:15 6.9 °F 4.4 °F 1017.8 in Calm   1.6 mph 84 % 0.0 in
20:23 11.7 °F 8.0 °F 1015.8 in WSW 3.7 mph 3.7 mph 78 % 0.0 in
20:25 6.8 °F 4.3 °F 1017.8 in Calm     84 % 0.0 in
20:45 6.3 °F 3.8 °F 1017.8 in Calm   1.6 mph 84 % 0.0 in
20:48 11.7 °F 8.2 °F 1016.8 in WSW 3.7 mph 3.7 mph 79 % 0.0 in
20:53 11.6 °F 8.1 °F 1016.8 in SW 1.9 mph   79 % 0.0 in
20:58 11.6 °F 8.1 °F 1016.8 in SW 3.9 mph 3.9 mph 79 % 0.0 in
21:08 11.4 °F 7.9 °F 1016.8 in WSW 3.7 mph 3.7 mph 79 % 0.0 in
21:15 6.0 °F 3.3 °F 1017.8 in WSW 3.2 mph 3.2 mph 83 % 0.0 in
21:18 11.3 °F 8.0 °F 1016.8 in West 1.9 mph   80 % 0.0 in
21:25 5.7 °F 3.1 °F 1017.8 in Calm   3.2 mph 83 % 0.0 in
21:28 11.1 °F 7.8 °F 1016.8 in Calm     80 % 0.0 in
21:33 11.1 °F 7.8 °F 1016.8 in Calm     80 % 0.0 in
21:34 11.1 °F 7.9 °F 1016.8 in Calm     81 % 0.0 in
21:35 5.8 °F 3.1 °F 1017.8 in SW 3.2 mph 3.2 mph 83 % 0.0 in
21:44 11.2 °F 7.9 °F 1016.8 in Calm     80 % 0.0 in
21:49 11.2 °F 8.1 °F 1016.8 in Calm     81 % 0.0 in
21:54 11.3 °F 8.0 °F 1016.8 in WNW 3.7 mph 3.7 mph 80 % 0.0 in
21:55 6.0 °F 3.5 °F 1017.8 in Calm     84 % 0.0 in
21:59 11.2 °F 7.9 °F 1016.8 in North 2.3 mph   80 % 0.0 in
22:04 11.0 °F 7.9 °F 1016.8 in Calm     81 % 0.0 in
22:09 10.9 °F 7.6 °F 1016.8 in Calm     80 % 0.0 in
22:24 10.6 °F 7.5 °F 1016.8 in Calm     81 % 0.0 in
22:25 6.5 °F 4.2 °F 1017.8 in Calm   1.6 mph 85 % 0.0 in
22:29 10.4 °F 7.1 °F 1016.8 in West 3.7 mph 3.7 mph 80 % 0.0 in
22:34 10.4 °F 7.1 °F 1016.8 in WSW 3.7 mph 3.7 mph 80 % 0.0 in
22:39 10.4 °F 7.1 °F 1016.8 in WSW 3.7 mph 3.7 mph 80 % 0.0 in
22:44 10.3 °F 7.2 °F 1016.8 in SW 2.3 mph 2.3 mph 81 % 0.0 in
22:54 9.8 °F 6.5 °F 1017.8 in SW 3.2 mph 3.2 mph 80 % 0.0 in
22:55 5.8 °F 3.3 °F 1017.8 in SW 3.2 mph 4.8 mph 84 % 0.0 in
22:59 9.7 °F 6.4 °F 1017.8 in SW 1.9 mph 1.9 mph 80 % 0.0 in
23:04 9.6 °F 6.5 °F 1017.8 in SSE 1.9 mph   81 % 0.0 in
23:05 5.6 °F 2.9 °F 1017.8 in SW 3.2 mph 6.4 mph 83 % 0.0 in
23:09 9.5 °F 6.4 °F 1017.8 in WSW 2.3 mph 2.3 mph 81 % 0.0 in
23:14 9.4 °F 6.3 °F 1017.8 in SW 3.7 mph 3.7 mph 81 % 0.0 in
23:15 5.4 °F 2.7 °F 1018.8 in SW 3.2 mph 4.8 mph 83 % 0.0 in
23:19 9.3 °F 6.2 °F 1017.8 in Calm     81 % 0.0 in
23:24 9.2 °F 6.1 °F 1017.8 in SW 3.7 mph 3.7 mph 81 % 0.0 in
23:25 5.6 °F 3.1 °F 1017.8 in WSW 1.6 mph 3.2 mph 84 % 0.0 in
23:29 9.1 °F 5.8 °F 1017.8 in SW 4.7 mph 4.7 mph 80 % 0.0 in
23:34 9.0 °F 5.7 °F 1017.8 in SW 3.7 mph 3.7 mph 80 % 0.0 in
23:35 5.8 °F 3.4 °F 1017.8 in Calm   1.6 mph 85 % 0.0 in
23:39 8.8 °F 5.6 °F 1017.8 in SW 3.7 mph 3.7 mph 80 % 0.0 in
23:44 8.7 °F 5.6 °F 1017.8 in SW 3.7 mph 3.7 mph 81 % 0.0 in
23:45 6.5 °F 4.2 °F 1017.8 in West 1.6 mph 3.2 mph 85 % 0.0 in
23:54 8.5 °F 5.6 °F 1017.8 in NNE 3.7 mph 3.7 mph 82 % 0.0 in
23:55 6.9 °F 4.6 °F 1017.8 in Calm   3.2 mph 85 % 0.0 in
23:59 8.5 °F 5.6 °F 1017.8 in NW 3.7 mph 3.7 mph 82 % 0.0 in
Meteo Sesrovires
Elogis d' Weather Underground - 2 mb

Guio original per  Jim McMurry - jmcmurry@mwt.net Adaptat per a la plantilla per  Wim van der Kuil - Leuven-Template.eu

Trobareu la nostra informacio del temps tambe a:

Weather Underground

AWEKAS